sensor_id;sensor_type;location;lat;lon;timestamp;temperature;humidity
56725;DHT22;42608;52.776;6.968;2022-10-16T00:01:48;13.10;99.90
56725;DHT22;42608;52.776;6.968;2022-10-16T00:04:14;13.10;99.90
56725;DHT22;42608;52.776;6.968;2022-10-16T00:06:39;13.10;99.90
56725;DHT22;42608;52.776;6.968;2022-10-16T00:09:05;13.10;99.90
56725;DHT22;42608;52.776;6.968;2022-10-16T00:11:32;13.10;99.90
56725;DHT22;42608;52.776;6.968;2022-10-16T00:14:05;13.00;99.90
56725;DHT22;42608;52.776;6.968;2022-10-16T00:16:31;13.10;99.90
56725;DHT22;42608;52.776;6.968;2022-10-16T00:18:57;13.00;99.90
56725;DHT22;42608;52.776;6.968;2022-10-16T00:21:24;13.10;99.90
56725;DHT22;42608;52.776;6.968;2022-10-16T00:23:57;13.10;99.90
56725;DHT22;42608;52.776;6.968;2022-10-16T00:26:22;13.10;99.90
56725;DHT22;42608;52.776;6.968;2022-10-16T00:28:49;13.00;99.90
56725;DHT22;42608;52.776;6.968;2022-10-16T00:31:14;13.00;99.90
56725;DHT22;42608;52.776;6.968;2022-10-16T00:33:40;13.00;99.90
56725;DHT22;42608;52.776;6.968;2022-10-16T00:36:07;13.10;99.90
56725;DHT22;42608;52.776;6.968;2022-10-16T00:38:32;13.00;99.90
56725;DHT22;42608;52.776;6.968;2022-10-16T00:40:58;13.00;99.90
56725;DHT22;42608;52.776;6.968;2022-10-16T00:43:37;13.10;99.90
56725;DHT22;42608;52.776;6.968;2022-10-16T00:46:05;13.00;99.90
56725;DHT22;42608;52.776;6.968;2022-10-16T00:48:31;13.00;99.90
56725;DHT22;42608;52.776;6.968;2022-10-16T00:50:56;13.00;99.90
56725;DHT22;42608;52.776;6.968;2022-10-16T00:53:23;13.00;99.90
56725;DHT22;42608;52.776;6.968;2022-10-16T00:55:50;13.10;99.90
56725;DHT22;42608;52.776;6.968;2022-10-16T00:58:16;13.00;99.90
56725;DHT22;42608;52.776;6.968;2022-10-16T01:00:41;13.00;99.90
56725;DHT22;42608;52.776;6.968;2022-10-16T01:03:27;13.10;99.90
56725;DHT22;42608;52.776;6.968;2022-10-16T01:05:56;13.10;99.90
56725;DHT22;42608;52.776;6.968;2022-10-16T01:08:27;13.10;99.90
56725;DHT22;42608;52.776;6.968;2022-10-16T01:11:06;13.00;99.90
56725;DHT22;42608;52.776;6.968;2022-10-16T01:13:38;13.10;99.90
56725;DHT22;42608;52.776;6.968;2022-10-16T01:16:07;13.10;99.90
56725;DHT22;42608;52.776;6.968;2022-10-16T01:18:45;13.10;99.90
56725;DHT22;42608;52.776;6.968;2022-10-16T01:23:49;13.10;99.90
56725;DHT22;42608;52.776;6.968;2022-10-16T01:28:52;13.00;99.90
56725;DHT22;42608;52.776;6.968;2022-10-16T01:31:21;13.10;99.90
56725;DHT22;42608;52.776;6.968;2022-10-16T01:34:22;13.10;99.90
56725;DHT22;42608;52.776;6.968;2022-10-16T01:36:47;13.10;99.90
56725;DHT22;42608;52.776;6.968;2022-10-16T01:39:14;13.10;99.90
56725;DHT22;42608;52.776;6.968;2022-10-16T01:41:46;13.10;99.90
56725;DHT22;42608;52.776;6.968;2022-10-16T01:44:16;13.10;99.90
56725;DHT22;42608;52.776;6.968;2022-10-16T01:46:43;13.10;99.90
56725;DHT22;42608;52.776;6.968;2022-10-16T01:49:11;13.10;99.90
56725;DHT22;42608;52.776;6.968;2022-10-16T01:51:37;13.10;99.90
56725;DHT22;42608;52.776;6.968;2022-10-16T01:54:02;13.10;99.90
56725;DHT22;42608;52.776;6.968;2022-10-16T01:56:29;13.10;99.90
56725;DHT22;42608;52.776;6.968;2022-10-16T01:59:02;13.00;99.90
56725;DHT22;42608;52.776;6.968;2022-10-16T02:01:31;13.10;99.90
56725;DHT22;42608;52.776;6.968;2022-10-16T02:03:57;13.00;99.90
56725;DHT22;42608;52.776;6.968;2022-10-16T02:06:24;13.00;99.90
56725;DHT22;42608;52.776;6.968;2022-10-16T02:08:50;13.00;99.90
56725;DHT22;42608;52.776;6.968;2022-10-16T02:11:15;13.00;99.90
56725;DHT22;42608;52.776;6.968;2022-10-16T02:13:42;13.00;99.90
56725;DHT22;42608;52.776;6.968;2022-10-16T02:16:10;13.00;99.90
56725;DHT22;42608;52.776;6.968;2022-10-16T02:18:36;13.00;99.90
56725;DHT22;42608;52.776;6.968;2022-10-16T02:25:58;13.00;99.90
56725;DHT22;42608;52.776;6.968;2022-10-16T02:28:25;13.00;99.90
56725;DHT22;42608;52.776;6.968;2022-10-16T02:30:58;13.00;99.90
56725;DHT22;42608;52.776;6.968;2022-10-16T02:33:25;13.00;99.90
56725;DHT22;42608;52.776;6.968;2022-10-16T02:35:51;13.00;99.90
56725;DHT22;42608;52.776;6.968;2022-10-16T02:38:18;12.90;99.90
56725;DHT22;42608;52.776;6.968;2022-10-16T02:40:44;12.90;99.90
56725;DHT22;42608;52.776;6.968;2022-10-16T02:43:09;12.90;99.90
56725;DHT22;42608;52.776;6.968;2022-10-16T02:45:36;13.00;99.90
56725;DHT22;42608;52.776;6.968;2022-10-16T02:48:01;12.90;99.90
56725;DHT22;42608;52.776;6.968;2022-10-16T02:50:27;13.00;99.90
56725;DHT22;42608;52.776;6.968;2022-10-16T02:52:52;13.00;99.90
56725;DHT22;42608;52.776;6.968;2022-10-16T02:55:18;13.00;99.90
56725;DHT22;42608;52.776;6.968;2022-10-16T02:57:43;12.90;99.90
56725;DHT22;42608;52.776;6.968;2022-10-16T03:00:09;13.00;99.90
56725;DHT22;42608;52.776;6.968;2022-10-16T03:02:36;13.00;99.90
56725;DHT22;42608;52.776;6.968;2022-10-16T03:05:02;13.00;99.90
56725;DHT22;42608;52.776;6.968;2022-10-16T03:07:27;13.00;99.90
56725;DHT22;42608;52.776;6.968;2022-10-16T03:09:53;13.00;99.90
56725;DHT22;42608;52.776;6.968;2022-10-16T03:12:19;13.00;99.90
56725;DHT22;42608;52.776;6.968;2022-10-16T03:14:45;13.00;99.90
56725;DHT22;42608;52.776;6.968;2022-10-16T03:17:10;13.00;99.90
56725;DHT22;42608;52.776;6.968;2022-10-16T03:19:36;13.00;99.90
56725;DHT22;42608;52.776;6.968;2022-10-16T03:22:02;13.00;99.90
56725;DHT22;42608;52.776;6.968;2022-10-16T03:24:27;13.10;99.90
56725;DHT22;42608;52.776;6.968;2022-10-16T03:26:55;13.10;99.90
56725;DHT22;42608;52.776;6.968;2022-10-16T03:29:21;13.10;99.90
56725;DHT22;42608;52.776;6.968;2022-10-16T03:31:47;13.20;99.90
56725;DHT22;42608;52.776;6.968;2022-10-16T03:34:14;13.20;99.90
56725;DHT22;42608;52.776;6.968;2022-10-16T03:36:40;13.20;99.90
56725;DHT22;42608;52.776;6.968;2022-10-16T03:39:05;13.20;99.90
56725;DHT22;42608;52.776;6.968;2022-10-16T03:41:31;13.20;99.90
56725;DHT22;42608;52.776;6.968;2022-10-16T03:43:56;13.30;99.90
56725;DHT22;42608;52.776;6.968;2022-10-16T03:46:22;13.30;99.90
56725;DHT22;42608;52.776;6.968;2022-10-16T03:48:48;13.30;99.90
56725;DHT22;42608;52.776;6.968;2022-10-16T03:51:13;13.30;99.90
56725;DHT22;42608;52.776;6.968;2022-10-16T03:53:39;13.30;99.90
56725;DHT22;42608;52.776;6.968;2022-10-16T03:56:04;13.30;99.90
56725;DHT22;42608;52.776;6.968;2022-10-16T03:58:30;13.30;99.90
56725;DHT22;42608;52.776;6.968;2022-10-16T04:00:56;13.30;99.90
56725;DHT22;42608;52.776;6.968;2022-10-16T04:03:21;13.30;99.90
56725;DHT22;42608;52.776;6.968;2022-10-16T04:05:48;13.30;99.90
56725;DHT22;42608;52.776;6.968;2022-10-16T04:08:13;13.40;99.90
56725;DHT22;42608;52.776;6.968;2022-10-16T04:10:39;13.30;99.90
56725;DHT22;42608;52.776;6.968;2022-10-16T04:13:05;13.30;99.90
56725;DHT22;42608;52.776;6.968;2022-10-16T04:15:30;13.30;99.90
56725;DHT22;42608;52.776;6.968;2022-10-16T04:17:56;13.30;99.90
56725;DHT22;42608;52.776;6.968;2022-10-16T04:20:21;13.30;99.90
56725;DHT22;42608;52.776;6.968;2022-10-16T04:22:47;13.30;99.90
56725;DHT22;42608;52.776;6.968;2022-10-16T04:25:12;13.30;99.90
56725;DHT22;42608;52.776;6.968;2022-10-16T04:27:38;13.30;99.90
56725;DHT22;42608;52.776;6.968;2022-10-16T04:30:04;13.30;99.90
56725;DHT22;42608;52.776;6.968;2022-10-16T04:32:30;13.30;99.90
56725;DHT22;42608;52.776;6.968;2022-10-16T04:34:55;13.30;99.90
56725;DHT22;42608;52.776;6.968;2022-10-16T04:37:24;13.30;99.90
56725;DHT22;42608;52.776;6.968;2022-10-16T04:39:50;13.30;99.90
56725;DHT22;42608;52.776;6.968;2022-10-16T04:42:16;13.30;99.90
56725;DHT22;42608;52.776;6.968;2022-10-16T04:44:41;13.30;99.90
56725;DHT22;42608;52.776;6.968;2022-10-16T04:47:07;13.30;99.90
56725;DHT22;42608;52.776;6.968;2022-10-16T04:49:33;13.30;99.90
56725;DHT22;42608;52.776;6.968;2022-10-16T04:51:58;13.20;99.90
56725;DHT22;42608;52.776;6.968;2022-10-16T04:54:24;13.20;99.90
56725;DHT22;42608;52.776;6.968;2022-10-16T04:56:49;13.20;99.90
56725;DHT22;42608;52.776;6.968;2022-10-16T04:59:17;13.30;99.90
56725;DHT22;42608;52.776;6.968;2022-10-16T05:01:43;13.30;99.90
56725;DHT22;42608;52.776;6.968;2022-10-16T05:04:09;13.30;99.90
56725;DHT22;42608;52.776;6.968;2022-10-16T05:06:35;13.20;99.90
56725;DHT22;42608;52.776;6.968;2022-10-16T05:09:00;13.20;99.90
56725;DHT22;42608;52.776;6.968;2022-10-16T05:11:26;13.20;99.90
56725;DHT22;42608;52.776;6.968;2022-10-16T05:13:51;13.20;99.90
56725;DHT22;42608;52.776;6.968;2022-10-16T05:16:17;13.20;99.90
56725;DHT22;42608;52.776;6.968;2022-10-16T05:18:43;13.20;99.90
56725;DHT22;42608;52.776;6.968;2022-10-16T05:21:08;13.20;99.90
56725;DHT22;42608;52.776;6.968;2022-10-16T05:23:34;13.20;99.90
56725;DHT22;42608;52.776;6.968;2022-10-16T05:25:59;13.20;99.90
56725;DHT22;42608;52.776;6.968;2022-10-16T05:28:26;13.20;99.90
56725;DHT22;42608;52.776;6.968;2022-10-16T05:30:52;13.20;99.90
56725;DHT22;42608;52.776;6.968;2022-10-16T05:33:19;13.20;99.90
56725;DHT22;42608;52.776;6.968;2022-10-16T05:35:45;13.20;99.90
56725;DHT22;42608;52.776;6.968;2022-10-16T05:38:10;13.20;99.90
56725;DHT22;42608;52.776;6.968;2022-10-16T05:40:36;13.20;99.90
56725;DHT22;42608;52.776;6.968;2022-10-16T05:43:01;13.10;99.90
56725;DHT22;42608;52.776;6.968;2022-10-16T05:45:27;13.10;99.90
56725;DHT22;42608;52.776;6.968;2022-10-16T05:47:52;13.10;99.90
56725;DHT22;42608;52.776;6.968;2022-10-16T05:50:18;13.10;99.90
56725;DHT22;42608;52.776;6.968;2022-10-16T05:52:44;13.10;99.90
56725;DHT22;42608;52.776;6.968;2022-10-16T05:55:09;13.00;99.90
56725;DHT22;42608;52.776;6.968;2022-10-16T05:57:35;13.10;99.90
56725;DHT22;42608;52.776;6.968;2022-10-16T06:00:00;13.10;99.90
56725;DHT22;42608;52.776;6.968;2022-10-16T06:02:26;13.00;99.90
56725;DHT22;42608;52.776;6.968;2022-10-16T06:04:51;13.00;99.90
56725;DHT22;42608;52.776;6.968;2022-10-16T06:07:19;13.00;99.90
56725;DHT22;42608;52.776;6.968;2022-10-16T06:09:47;13.10;99.90
56725;DHT22;42608;52.776;6.968;2022-10-16T06:12:13;13.00;99.90
56725;DHT22;42608;52.776;6.968;2022-10-16T06:14:38;13.10;99.90
56725;DHT22;42608;52.776;6.968;2022-10-16T06:17:04;13.10;99.90
56725;DHT22;42608;52.776;6.968;2022-10-16T06:19:29;13.00;99.90
56725;DHT22;42608;52.776;6.968;2022-10-16T06:21:55;13.00;99.90
56725;DHT22;42608;52.776;6.968;2022-10-16T06:24:23;13.00;99.90
56725;DHT22;42608;52.776;6.968;2022-10-16T06:26:48;13.00;99.90
56725;DHT22;42608;52.776;6.968;2022-10-16T06:29:14;13.10;99.90
56725;DHT22;42608;52.776;6.968;2022-10-16T06:31:39;13.10;99.90
56725;DHT22;42608;52.776;6.968;2022-10-16T06:34:05;13.10;99.90
56725;DHT22;42608;52.776;6.968;2022-10-16T06:36:34;13.10;99.90
56725;DHT22;42608;52.776;6.968;2022-10-16T06:39:00;13.10;99.90
56725;DHT22;42608;52.776;6.968;2022-10-16T06:41:25;13.10;99.90
56725;DHT22;42608;52.776;6.968;2022-10-16T06:43:51;13.10;99.90
56725;DHT22;42608;52.776;6.968;2022-10-16T06:46:19;13.10;99.90
56725;DHT22;42608;52.776;6.968;2022-10-16T06:48:45;13.10;99.90
56725;DHT22;42608;52.776;6.968;2022-10-16T06:51:11;13.10;99.90
56725;DHT22;42608;52.776;6.968;2022-10-16T06:53:39;13.10;99.90
56725;DHT22;42608;52.776;6.968;2022-10-16T06:56:08;13.20;99.90
56725;DHT22;42608;52.776;6.968;2022-10-16T06:58:34;13.10;99.90
56725;DHT22;42608;52.776;6.968;2022-10-16T07:01:00;13.20;99.90
56725;DHT22;42608;52.776;6.968;2022-10-16T07:03:25;13.20;99.90
56725;DHT22;42608;52.776;6.968;2022-10-16T07:05:51;13.20;99.90
56725;DHT22;42608;52.776;6.968;2022-10-16T07:08:16;13.20;99.90
56725;DHT22;42608;52.776;6.968;2022-10-16T07:10:42;13.20;99.90
56725;DHT22;42608;52.776;6.968;2022-10-16T07:13:07;13.20;99.90
56725;DHT22;42608;52.776;6.968;2022-10-16T07:15:33;13.20;99.90
56725;DHT22;42608;52.776;6.968;2022-10-16T07:17:59;13.20;99.90
56725;DHT22;42608;52.776;6.968;2022-10-16T07:20:25;13.30;99.90
56725;DHT22;42608;52.776;6.968;2022-10-16T07:22:51;13.30;99.90
56725;DHT22;42608;52.776;6.968;2022-10-16T07:25:17;13.30;99.90
56725;DHT22;42608;52.776;6.968;2022-10-16T07:27:43;13.40;99.90
56725;DHT22;42608;52.776;6.968;2022-10-16T07:30:08;13.40;99.90
56725;DHT22;42608;52.776;6.968;2022-10-16T07:32:37;13.40;99.90
56725;DHT22;42608;52.776;6.968;2022-10-16T07:35:03;13.40;99.90
56725;DHT22;42608;52.776;6.968;2022-10-16T07:37:28;13.50;99.90
56725;DHT22;42608;52.776;6.968;2022-10-16T07:39:54;13.50;99.90
56725;DHT22;42608;52.776;6.968;2022-10-16T07:42:19;13.50;99.90
56725;DHT22;42608;52.776;6.968;2022-10-16T07:44:45;13.50;99.90
56725;DHT22;42608;52.776;6.968;2022-10-16T07:47:11;13.50;99.90
56725;DHT22;42608;52.776;6.968;2022-10-16T07:49:36;13.60;99.90
56725;DHT22;42608;52.776;6.968;2022-10-16T07:52:02;13.60;99.90
56725;DHT22;42608;52.776;6.968;2022-10-16T07:54:27;13.70;99.90
56725;DHT22;42608;52.776;6.968;2022-10-16T07:56:53;13.70;99.90
56725;DHT22;42608;52.776;6.968;2022-10-16T07:59:18;13.70;99.90
56725;DHT22;42608;52.776;6.968;2022-10-16T08:01:44;13.70;99.90
56725;DHT22;42608;52.776;6.968;2022-10-16T08:04:09;13.80;99.90
56725;DHT22;42608;52.776;6.968;2022-10-16T08:06:36;13.80;99.90
56725;DHT22;42608;52.776;6.968;2022-10-16T08:09:02;13.80;99.90
56725;DHT22;42608;52.776;6.968;2022-10-16T08:11:27;13.80;99.90
56725;DHT22;42608;52.776;6.968;2022-10-16T08:13:53;13.80;99.90
56725;DHT22;42608;52.776;6.968;2022-10-16T08:16:18;13.80;99.90
56725;DHT22;42608;52.776;6.968;2022-10-16T08:18:44;13.80;99.90
56725;DHT22;42608;52.776;6.968;2022-10-16T08:21:16;13.80;99.90
56725;DHT22;42608;52.776;6.968;2022-10-16T08:23:42;13.90;99.90
56725;DHT22;42608;52.776;6.968;2022-10-16T08:26:09;13.80;99.90
56725;DHT22;42608;52.776;6.968;2022-10-16T08:28:35;13.80;99.90
56725;DHT22;42608;52.776;6.968;2022-10-16T08:33:32;13.90;99.90
56725;DHT22;42608;52.776;6.968;2022-10-16T08:36:00;13.90;99.90
56725;DHT22;42608;52.776;6.968;2022-10-16T08:38:25;13.90;99.90
56725;DHT22;42608;52.776;6.968;2022-10-16T08:40:51;13.90;99.90
56725;DHT22;42608;52.776;6.968;2022-10-16T08:53:49;14.20;99.90
56725;DHT22;42608;52.776;6.968;2022-10-16T08:56:17;14.30;99.90
56725;DHT22;42608;52.776;6.968;2022-10-16T08:58:43;14.40;99.90
56725;DHT22;42608;52.776;6.968;2022-10-16T09:01:13;14.40;99.90
56725;DHT22;42608;52.776;6.968;2022-10-16T09:08:36;14.50;99.90
56725;DHT22;42608;52.776;6.968;2022-10-16T09:11:29;14.50;99.90
56725;DHT22;42608;52.776;6.968;2022-10-16T09:14:07;14.60;99.90
56725;DHT22;42608;52.776;6.968;2022-10-16T09:16:38;14.50;99.90
56725;DHT22;42608;52.776;6.968;2022-10-16T09:21:50;14.60;99.90
56725;DHT22;42608;52.776;6.968;2022-10-16T09:24:19;14.70;99.90
56725;DHT22;42608;52.776;6.968;2022-10-16T09:26:46;14.70;99.90
56725;DHT22;42608;52.776;6.968;2022-10-16T09:29:19;14.70;99.90
56725;DHT22;42608;52.776;6.968;2022-10-16T09:31:51;14.80;99.90
56725;DHT22;42608;52.776;6.968;2022-10-16T09:36:44;14.90;99.90
56725;DHT22;42608;52.776;6.968;2022-10-16T09:39:11;14.90;99.90
56725;DHT22;42608;52.776;6.968;2022-10-16T09:41:37;15.00;99.90
56725;DHT22;42608;52.776;6.968;2022-10-16T09:44:24;15.00;99.90
56725;DHT22;42608;52.776;6.968;2022-10-16T09:47:04;15.00;99.90
56725;DHT22;42608;52.776;6.968;2022-10-16T09:49:30;15.10;99.90
56725;DHT22;42608;52.776;6.968;2022-10-16T09:52:09;15.10;99.90
56725;DHT22;42608;52.776;6.968;2022-10-16T09:54:36;15.10;99.90
56725;DHT22;42608;52.776;6.968;2022-10-16T09:57:10;15.20;99.90
56725;DHT22;42608;52.776;6.968;2022-10-16T09:59:45;15.20;99.90
56725;DHT22;42608;52.776;6.968;2022-10-16T10:02:11;15.30;99.90
56725;DHT22;42608;52.776;6.968;2022-10-16T10:04:41;15.30;99.90
56725;DHT22;42608;52.776;6.968;2022-10-16T10:07:07;15.30;99.90
56725;DHT22;42608;52.776;6.968;2022-10-16T10:09:42;15.40;99.90
56725;DHT22;42608;52.776;6.968;2022-10-16T10:12:20;15.40;99.90
56725;DHT22;42608;52.776;6.968;2022-10-16T10:14:50;15.50;99.90
56725;DHT22;42608;52.776;6.968;2022-10-16T10:17:17;15.50;99.90
56725;DHT22;42608;52.776;6.968;2022-10-16T10:19:54;15.50;99.90
56725;DHT22;42608;52.776;6.968;2022-10-16T10:32:46;15.60;99.90
56725;DHT22;42608;52.776;6.968;2022-10-16T10:43:01;15.80;99.90
56725;DHT22;42608;52.776;6.968;2022-10-16T10:48:19;15.90;99.90
56725;DHT22;42608;52.776;6.968;2022-10-16T10:53:28;16.00;99.90
56725;DHT22;42608;52.776;6.968;2022-10-16T11:06:05;16.30;99.90
56725;DHT22;42608;52.776;6.968;2022-10-16T11:08:36;16.30;99.90
56725;DHT22;42608;52.776;6.968;2022-10-16T11:11:07;16.30;99.90
56725;DHT22;42608;52.776;6.968;2022-10-16T11:13:55;16.30;99.90
56725;DHT22;42608;52.776;6.968;2022-10-16T11:16:26;16.30;99.90
56725;DHT22;42608;52.776;6.968;2022-10-16T11:19:03;16.30;99.90
56725;DHT22;42608;52.776;6.968;2022-10-16T11:21:31;16.30;99.90
56725;DHT22;42608;52.776;6.968;2022-10-16T11:24:00;16.40;99.90
56725;DHT22;42608;52.776;6.968;2022-10-16T11:26:30;16.40;99.90
56725;DHT22;42608;52.776;6.968;2022-10-16T11:28:58;16.50;99.90
56725;DHT22;42608;52.776;6.968;2022-10-16T11:34:16;16.50;99.90
56725;DHT22;42608;52.776;6.968;2022-10-16T11:36:45;16.60;99.90
56725;DHT22;42608;52.776;6.968;2022-10-16T11:39:19;16.70;99.90
56725;DHT22;42608;52.776;6.968;2022-10-16T11:41:50;16.80;99.90
56725;DHT22;42608;52.776;6.968;2022-10-16T11:44:23;16.80;99.90
56725;DHT22;42608;52.776;6.968;2022-10-16T11:49:32;16.70;99.90
56725;DHT22;42608;52.776;6.968;2022-10-16T11:54:26;16.50;99.90
56725;DHT22;42608;52.776;6.968;2022-10-16T11:56:54;16.40;99.90
56725;DHT22;42608;52.776;6.968;2022-10-16T11:59:34;16.40;99.90
56725;DHT22;42608;52.776;6.968;2022-10-16T12:02:21;16.40;99.90
56725;DHT22;42608;52.776;6.968;2022-10-16T12:04:50;16.40;99.90
56725;DHT22;42608;52.776;6.968;2022-10-16T12:07:22;16.40;99.90
56725;DHT22;42608;52.776;6.968;2022-10-16T12:09:49;16.40;99.90
56725;DHT22;42608;52.776;6.968;2022-10-16T12:12:28;16.50;99.90
56725;DHT22;42608;52.776;6.968;2022-10-16T12:15:15;16.50;99.90
56725;DHT22;42608;52.776;6.968;2022-10-16T12:17:42;16.60;99.90
56725;DHT22;42608;52.776;6.968;2022-10-16T12:22:37;16.70;99.90
56725;DHT22;42608;52.776;6.968;2022-10-16T12:25:18;16.80;99.90
56725;DHT22;42608;52.776;6.968;2022-10-16T12:27:44;16.80;99.90
56725;DHT22;42608;52.776;6.968;2022-10-16T12:30:15;16.90;99.90
56725;DHT22;42608;52.776;6.968;2022-10-16T12:32:45;16.90;99.90
56725;DHT22;42608;52.776;6.968;2022-10-16T12:35:28;16.90;99.90
56725;DHT22;42608;52.776;6.968;2022-10-16T12:38:04;17.00;99.90
56725;DHT22;42608;52.776;6.968;2022-10-16T12:40:32;17.00;99.90
56725;DHT22;42608;52.776;6.968;2022-10-16T12:43:46;17.00;99.90
56725;DHT22;42608;52.776;6.968;2022-10-16T12:45:46;17.10;99.90
56725;DHT22;42608;52.776;6.968;2022-10-16T12:48:19;17.10;99.90
56725;DHT22;42608;52.776;6.968;2022-10-16T12:50:45;17.10;99.90
56725;DHT22;42608;52.776;6.968;2022-10-16T12:53:18;17.20;99.90
56725;DHT22;42608;52.776;6.968;2022-10-16T12:56:27;17.10;99.90
56725;DHT22;42608;52.776;6.968;2022-10-16T12:58:49;17.10;99.90
56725;DHT22;42608;52.776;6.968;2022-10-16T13:01:23;17.10;99.90
56725;DHT22;42608;52.776;6.968;2022-10-16T13:04:14;17.10;99.90
56725;DHT22;42608;52.776;6.968;2022-10-16T13:24:49;17.00;99.90
56725;DHT22;42608;52.776;6.968;2022-10-16T13:30:00;16.90;99.90
56725;DHT22;42608;52.776;6.968;2022-10-16T13:32:26;16.90;99.90
56725;DHT22;42608;52.776;6.968;2022-10-16T13:34:52;16.90;99.90
56725;DHT22;42608;52.776;6.968;2022-10-16T13:37:20;17.00;99.90
56725;DHT22;42608;52.776;6.968;2022-10-16T13:39:46;17.00;99.90
56725;DHT22;42608;52.776;6.968;2022-10-16T13:42:18;17.10;99.90
56725;DHT22;42608;52.776;6.968;2022-10-16T13:44:49;17.10;99.90
56725;DHT22;42608;52.776;6.968;2022-10-16T13:47:16;17.10;99.90
56725;DHT22;42608;52.776;6.968;2022-10-16T13:49:42;17.10;99.90
56725;DHT22;42608;52.776;6.968;2022-10-16T13:52:18;17.10;99.90
56725;DHT22;42608;52.776;6.968;2022-10-16T13:54:44;17.10;99.90
56725;DHT22;42608;52.776;6.968;2022-10-16T13:57:14;17.10;99.90
56725;DHT22;42608;52.776;6.968;2022-10-16T13:59:39;17.10;99.90
56725;DHT22;42608;52.776;6.968;2022-10-16T14:02:13;17.10;99.90
56725;DHT22;42608;52.776;6.968;2022-10-16T14:04:40;17.10;99.90
56725;DHT22;42608;52.776;6.968;2022-10-16T14:07:11;17.10;99.90
56725;DHT22;42608;52.776;6.968;2022-10-16T14:09:39;17.10;99.90
56725;DHT22;42608;52.776;6.968;2022-10-16T14:12:08;17.10;99.90
56725;DHT22;42608;52.776;6.968;2022-10-16T14:14:35;17.10;99.90
56725;DHT22;42608;52.776;6.968;2022-10-16T14:17:05;17.00;99.90
56725;DHT22;42608;52.776;6.968;2022-10-16T14:19:31;17.10;99.90
56725;DHT22;42608;52.776;6.968;2022-10-16T14:21:57;17.10;99.90
56725;DHT22;42608;52.776;6.968;2022-10-16T14:24:30;17.10;99.90
56725;DHT22;42608;52.776;6.968;2022-10-16T14:26:56;17.10;99.90
56725;DHT22;42608;52.776;6.968;2022-10-16T14:29:23;17.10;99.90
56725;DHT22;42608;52.776;6.968;2022-10-16T14:34:31;17.10;99.90
56725;DHT22;42608;52.776;6.968;2022-10-16T14:39:48;17.10;99.90
56725;DHT22;42608;52.776;6.968;2022-10-16T14:42:14;17.10;99.90
56725;DHT22;42608;52.776;6.968;2022-10-16T14:44:41;17.20;99.90
56725;DHT22;42608;52.776;6.968;2022-10-16T14:47:12;17.10;99.90
56725;DHT22;42608;52.776;6.968;2022-10-16T14:49:38;17.10;99.90
56725;DHT22;42608;52.776;6.968;2022-10-16T14:52:08;17.10;99.90
56725;DHT22;42608;52.776;6.968;2022-10-16T14:54:33;17.10;99.90
56725;DHT22;42608;52.776;6.968;2022-10-16T14:56:59;17.10;99.90
56725;DHT22;42608;52.776;6.968;2022-10-16T14:59:27;17.00;99.90
56725;DHT22;42608;52.776;6.968;2022-10-16T15:01:53;17.10;99.90
56725;DHT22;42608;52.776;6.968;2022-10-16T15:04:19;17.00;99.90
56725;DHT22;42608;52.776;6.968;2022-10-16T15:06:45;17.00;99.90
56725;DHT22;42608;52.776;6.968;2022-10-16T15:09:10;17.00;99.90
56725;DHT22;42608;52.776;6.968;2022-10-16T15:11:36;17.00;99.90
56725;DHT22;42608;52.776;6.968;2022-10-16T15:14:02;17.00;99.90
56725;DHT22;42608;52.776;6.968;2022-10-16T15:16:29;17.00;99.90
56725;DHT22;42608;52.776;6.968;2022-10-16T15:18:55;17.00;99.90
56725;DHT22;42608;52.776;6.968;2022-10-16T15:21:23;17.00;99.90
56725;DHT22;42608;52.776;6.968;2022-10-16T15:23:49;16.90;99.90
56725;DHT22;42608;52.776;6.968;2022-10-16T15:26:16;16.90;99.90
56725;DHT22;42608;52.776;6.968;2022-10-16T15:28:41;16.90;99.90
56725;DHT22;42608;52.776;6.968;2022-10-16T15:31:07;16.90;99.90
56725;DHT22;42608;52.776;6.968;2022-10-16T15:33:32;16.90;99.90
56725;DHT22;42608;52.776;6.968;2022-10-16T15:36:00;16.80;99.90
56725;DHT22;42608;52.776;6.968;2022-10-16T15:38:26;16.80;99.90
56725;DHT22;42608;52.776;6.968;2022-10-16T15:40:52;16.80;99.90
56725;DHT22;42608;52.776;6.968;2022-10-16T15:43:18;16.80;99.90
56725;DHT22;42608;52.776;6.968;2022-10-16T15:45:44;16.70;99.90
56725;DHT22;42608;52.776;6.968;2022-10-16T15:48:11;16.70;99.90
56725;DHT22;42608;52.776;6.968;2022-10-16T15:50:37;16.70;99.90
56725;DHT22;42608;52.776;6.968;2022-10-16T15:53:02;16.70;99.90
56725;DHT22;42608;52.776;6.968;2022-10-16T15:55:28;16.60;99.90
56725;DHT22;42608;52.776;6.968;2022-10-16T15:57:54;16.60;99.90
56725;DHT22;42608;52.776;6.968;2022-10-16T16:00:20;16.60;99.90
56725;DHT22;42608;52.776;6.968;2022-10-16T16:02:51;16.50;99.90
56725;DHT22;42608;52.776;6.968;2022-10-16T16:05:17;16.50;99.90
56725;DHT22;42608;52.776;6.968;2022-10-16T16:07:43;16.50;99.90
56725;DHT22;42608;52.776;6.968;2022-10-16T16:10:09;16.40;99.90
56725;DHT22;42608;52.776;6.968;2022-10-16T16:12:35;16.50;99.90
56725;DHT22;42608;52.776;6.968;2022-10-16T16:15:02;16.40;99.90
56725;DHT22;42608;52.776;6.968;2022-10-16T16:17:28;16.40;99.90
56725;DHT22;42608;52.776;6.968;2022-10-16T16:19:55;16.30;99.90
56725;DHT22;42608;52.776;6.968;2022-10-16T16:22:20;16.30;99.90
56725;DHT22;42608;52.776;6.968;2022-10-16T16:24:46;16.20;99.90
56725;DHT22;42608;52.776;6.968;2022-10-16T16:27:11;16.10;99.90
56725;DHT22;42608;52.776;6.968;2022-10-16T16:29:39;16.10;99.90
56725;DHT22;42608;52.776;6.968;2022-10-16T16:32:04;16.00;99.90
56725;DHT22;42608;52.776;6.968;2022-10-16T16:34:30;16.00;99.90
56725;DHT22;42608;52.776;6.968;2022-10-16T16:36:56;16.00;99.90
56725;DHT22;42608;52.776;6.968;2022-10-16T16:39:22;15.90;99.90
56725;DHT22;42608;52.776;6.968;2022-10-16T16:41:48;15.90;99.90
56725;DHT22;42608;52.776;6.968;2022-10-16T16:44:14;15.80;99.90
56725;DHT22;42608;52.776;6.968;2022-10-16T16:46:40;15.80;99.90
56725;DHT22;42608;52.776;6.968;2022-10-16T16:49:06;15.70;99.90
56725;DHT22;42608;52.776;6.968;2022-10-16T16:51:32;15.70;99.90
56725;DHT22;42608;52.776;6.968;2022-10-16T16:53:57;15.60;99.90
56725;DHT22;42608;52.776;6.968;2022-10-16T16:56:23;15.60;99.90
56725;DHT22;42608;52.776;6.968;2022-10-16T16:58:50;15.50;99.90
56725;DHT22;42608;52.776;6.968;2022-10-16T17:01:15;15.50;99.90
56725;DHT22;42608;52.776;6.968;2022-10-16T17:03:41;15.40;99.90
56725;DHT22;42608;52.776;6.968;2022-10-16T17:06:09;15.30;99.90
56725;DHT22;42608;52.776;6.968;2022-10-16T17:08:36;15.30;99.90
56725;DHT22;42608;52.776;6.968;2022-10-16T17:11:01;15.30;99.90
56725;DHT22;42608;52.776;6.968;2022-10-16T17:13:29;15.20;99.90
56725;DHT22;42608;52.776;6.968;2022-10-16T17:15:55;15.20;99.90
56725;DHT22;42608;52.776;6.968;2022-10-16T17:18:21;15.20;99.90